createdAt,value
2023-02-05T00:01:13.718Z,1.10
2023-02-05T00:03:40.618Z,1.10
2023-02-05T00:06:09.044Z,1.10
2023-02-05T00:08:36.123Z,1.10
2023-02-05T00:11:03.902Z,1.10
2023-02-05T00:13:31.015Z,1.00
2023-02-05T00:15:57.856Z,1.00
2023-02-05T00:18:25.284Z,1.00
2023-02-05T00:20:52.171Z,1.00
2023-02-05T00:23:20.808Z,1.00
2023-02-05T00:25:47.675Z,1.00
2023-02-05T00:28:14.790Z,0.90
2023-02-05T00:30:47.157Z,0.90
2023-02-05T00:33:15.708Z,0.90
2023-02-05T00:35:43.957Z,0.90
2023-02-05T00:38:11.584Z,0.80
2023-02-05T00:40:41.224Z,0.80
2023-02-05T00:43:09.871Z,0.80
2023-02-05T00:45:37.002Z,0.80
2023-02-05T00:48:05.380Z,0.70
2023-02-05T00:50:33.728Z,0.70
2023-02-05T00:53:01.082Z,0.70
2023-02-05T00:55:28.369Z,0.70
2023-02-05T00:57:57.125Z,0.70
2023-02-05T01:00:24.656Z,0.70
2023-02-05T01:02:51.726Z,0.70
2023-02-05T01:05:20.447Z,0.70
2023-02-05T01:07:47.502Z,0.70
2023-02-05T01:10:14.866Z,0.70
2023-02-05T01:12:42.084Z,0.70
2023-02-05T01:15:13.459Z,0.70
2023-02-05T01:17:41.551Z,0.60
2023-02-05T01:20:10.536Z,0.60
2023-02-05T01:22:37.759Z,0.60
2023-02-05T01:25:05.911Z,0.60
2023-02-05T01:27:33.524Z,0.60
2023-02-05T01:30:00.484Z,0.60
2023-02-05T01:32:29.706Z,0.60
2023-02-05T01:34:56.839Z,0.60
2023-02-05T01:40:16.456Z,0.60
2023-02-05T01:46:13.848Z,0.50
2023-02-05T01:48:48.527Z,0.50
2023-02-05T01:51:17.216Z,0.50
2023-02-05T01:53:48.624Z,0.50
2023-02-05T01:56:20.969Z,0.50
2023-02-05T01:58:56.860Z,0.50
2023-02-05T02:01:25.912Z,0.50
2023-02-05T02:03:56.740Z,0.50
2023-02-05T02:06:23.665Z,0.50
2023-02-05T02:08:50.753Z,0.50
2023-02-05T02:11:21.631Z,0.50
2023-02-05T02:13:52.362Z,0.50
2023-02-05T02:16:19.964Z,0.50
2023-02-05T02:18:47.973Z,0.50
2023-02-05T02:21:56.067Z,0.50
2023-02-05T02:25:23.701Z,0.50
2023-02-05T02:27:58.465Z,0.50
2023-02-05T02:33:37.440Z,0.50
2023-02-05T02:36:13.097Z,0.50
2023-02-05T02:38:45.418Z,0.50
2023-02-05T02:41:19.279Z,0.50
2023-02-05T02:44:07.103Z,0.60
2023-02-05T02:46:41.998Z,0.60
2023-02-05T02:49:16.866Z,0.60
2023-02-05T02:51:47.608Z,0.60
2023-02-05T02:54:20.086Z,0.60
2023-02-05T02:56:50.989Z,0.70
2023-02-05T02:59:24.439Z,0.70
2023-02-05T03:02:05.722Z,0.70
2023-02-05T03:04:40.308Z,0.70
2023-02-05T03:07:15.113Z,0.70
2023-02-05T03:09:50.540Z,0.70
2023-02-05T03:12:19.173Z,0.70
2023-02-05T03:14:48.806Z,0.80
2023-02-05T03:17:20.334Z,0.80
2023-02-05T03:20:01.815Z,0.80
2023-02-05T03:22:31.208Z,0.80
2023-02-05T03:24:58.463Z,0.80
2023-02-05T03:27:26.340Z,0.80
2023-02-05T03:30:01.606Z,0.80
2023-02-05T03:32:45.205Z,0.80
2023-02-05T03:35:27.826Z,0.80
2023-02-05T03:38:23.784Z,0.80
2023-02-05T03:40:57.015Z,0.80
2023-02-05T03:43:39.478Z,0.90
2023-02-05T03:46:20.753Z,0.90
2023-02-05T03:49:07.448Z,0.90
2023-02-05T03:51:46.636Z,0.90
2023-02-05T03:54:27.265Z,0.90
2023-02-05T03:57:04.610Z,0.90
2023-02-05T03:59:36.717Z,0.90
2023-02-05T04:02:06.342Z,0.80
2023-02-05T04:04:49.084Z,0.80
2023-02-05T04:07:26.916Z,0.80
2023-02-05T04:10:05.191Z,0.80
2023-02-05T04:12:52.068Z,0.80
2023-02-05T04:15:30.037Z,0.80
2023-02-05T04:18:10.779Z,0.80
2023-02-05T04:20:49.276Z,0.80
2023-02-05T04:23:32.162Z,0.80
2023-02-05T04:26:11.685Z,0.80
2023-02-05T04:28:57.248Z,0.80
2023-02-05T04:31:33.062Z,0.80
2023-02-05T04:34:12.907Z,0.80
2023-02-05T04:36:50.208Z,0.80
2023-02-05T04:39:27.637Z,0.80
2023-02-05T04:42:05.436Z,0.80
2023-02-05T04:44:42.634Z,0.80
2023-02-05T04:47:20.238Z,0.80
2023-02-05T04:49:58.799Z,0.80
2023-02-05T04:52:35.722Z,0.80
2023-02-05T04:55:12.637Z,0.80
2023-02-05T04:57:52.352Z,0.80
2023-02-05T05:00:30.084Z,0.80
2023-02-05T05:03:07.552Z,0.80
2023-02-05T05:05:46.198Z,0.90
2023-02-05T05:08:23.184Z,0.90
2023-02-05T05:11:00.661Z,0.90
2023-02-05T05:13:38.065Z,0.80
2023-02-05T05:16:15.328Z,0.90
2023-02-05T05:18:53.328Z,0.90
2023-02-05T05:21:31.769Z,0.80
2023-02-05T05:24:08.696Z,0.90
2023-02-05T05:26:45.646Z,0.90
2023-02-05T05:29:22.629Z,0.90
2023-02-05T05:31:59.700Z,0.90
2023-02-05T05:34:37.063Z,0.90
2023-02-05T05:37:15.664Z,0.90
2023-02-05T05:39:52.657Z,0.90
2023-02-05T05:42:30.179Z,0.90
2023-02-05T05:45:08.207Z,0.90
2023-02-05T05:47:43.138Z,0.90
2023-02-05T05:50:20.320Z,1.00
2023-02-05T05:53:00.402Z,1.00
2023-02-05T05:55:37.511Z,1.00
2023-02-05T05:58:15.189Z,1.00
2023-02-05T06:00:52.315Z,1.00
2023-02-05T06:03:29.911Z,1.10
2023-02-05T06:06:10.230Z,1.10
2023-02-05T06:08:48.726Z,1.10
2023-02-05T06:11:25.966Z,1.10
2023-02-05T06:14:02.916Z,1.10
2023-02-05T06:16:40.384Z,1.10
2023-02-05T06:19:17.639Z,1.10
2023-02-05T06:21:54.543Z,1.10
2023-02-05T06:24:33.036Z,1.10
2023-02-05T06:27:10.289Z,1.10
2023-02-05T06:29:47.592Z,1.20
2023-02-05T06:32:26.803Z,1.20
2023-02-05T06:35:04.305Z,1.20
2023-02-05T06:37:48.736Z,1.20
2023-02-05T06:40:26.949Z,1.20
2023-02-05T06:43:04.424Z,1.20
2023-02-05T06:45:41.530Z,1.20
2023-02-05T06:48:18.699Z,1.30
2023-02-05T06:50:55.936Z,1.30
2023-02-05T06:53:33.232Z,1.40
2023-02-05T06:56:11.822Z,1.40
2023-02-05T06:58:48.802Z,1.40
2023-02-05T07:01:25.948Z,1.40
2023-02-05T07:04:03.106Z,1.50
2023-02-05T07:06:40.105Z,1.40
2023-02-05T07:09:17.174Z,1.50
2023-02-05T07:11:55.599Z,1.50
2023-02-05T07:14:36.762Z,1.50
2023-02-05T07:17:13.930Z,1.50
2023-02-05T07:19:51.470Z,1.60
2023-02-05T07:22:28.950Z,1.60
2023-02-05T07:25:07.274Z,1.60
2023-02-05T07:27:45.750Z,1.60
2023-02-05T07:30:22.995Z,1.60
2023-02-05T07:32:59.913Z,1.60
2023-02-05T07:35:38.447Z,1.70
2023-02-05T07:38:15.473Z,1.70
2023-02-05T07:40:52.544Z,1.70
2023-02-05T07:43:30.910Z,1.70
2023-02-05T07:46:11.327Z,1.80
2023-02-05T07:48:48.416Z,1.80
2023-02-05T07:51:26.708Z,1.80
2023-02-05T07:53:58.973Z,1.80
2023-02-05T07:56:36.483Z,1.80
2023-02-05T07:59:14.750Z,1.90
2023-02-05T08:01:52.054Z,1.90
2023-02-05T08:04:29.300Z,1.90
2023-02-05T08:07:06.580Z,2.00
2023-02-05T08:09:43.580Z,2.10
2023-02-05T08:12:20.885Z,2.10
2023-02-05T08:14:59.177Z,2.20
2023-02-05T08:17:36.500Z,2.20
2023-02-05T08:20:13.592Z,2.20
2023-02-05T08:22:51.216Z,2.20
2023-02-05T08:25:28.485Z,2.30
2023-02-05T08:28:06.068Z,2.30
2023-02-05T08:30:45.275Z,2.40
2023-02-05T08:33:22.588Z,2.40
2023-02-05T08:35:59.779Z,2.50
2023-02-05T08:38:37.132Z,2.50
2023-02-05T08:41:14.219Z,2.50
2023-02-05T08:43:52.012Z,2.50
2023-02-05T08:46:40.325Z,2.50
2023-02-05T08:49:25.168Z,2.60
2023-02-05T08:52:02.211Z,2.60
2023-02-05T08:54:39.596Z,2.70
2023-02-05T08:57:20.132Z,2.70
2023-02-05T08:59:57.362Z,2.70
2023-02-05T09:02:35.627Z,2.80
2023-02-05T09:05:20.851Z,2.80
2023-02-05T09:07:58.016Z,2.80
2023-02-05T09:10:37.074Z,2.90
2023-02-05T09:13:14.007Z,3.00
2023-02-05T09:15:55.783Z,3.00
2023-02-05T09:18:34.026Z,3.10
2023-02-05T09:21:11.376Z,3.20
2023-02-05T09:23:48.512Z,3.30
2023-02-05T09:26:26.369Z,3.40
2023-02-05T09:29:03.563Z,3.50
2023-02-05T09:31:41.663Z,3.70
2023-02-05T09:34:20.244Z,3.80
2023-02-05T09:36:57.345Z,3.90
2023-02-05T09:40:17.660Z,4.00
2023-02-05T09:45:56.371Z,4.40
2023-02-05T09:48:47.637Z,4.60
2023-02-05T09:51:35.250Z,4.70
2023-02-05T09:54:20.387Z,4.90
2023-02-05T09:57:05.521Z,5.00
2023-02-05T09:59:46.685Z,5.20
2023-02-05T10:02:31.396Z,5.40
2023-02-05T10:05:14.626Z,5.50
2023-02-05T10:08:08.776Z,5.60
2023-02-05T10:10:49.364Z,5.70
2023-02-05T10:13:35.804Z,5.80
2023-02-05T10:16:42.622Z,5.80
2023-02-05T10:19:47.784Z,5.70
2023-02-05T10:22:34.402Z,5.70
2023-02-05T10:25:37.748Z,5.70
2023-02-05T10:28:40.414Z,5.70
2023-02-05T10:31:36.015Z,5.80
2023-02-05T10:34:27.070Z,5.90
2023-02-05T10:37:18.715Z,6.00
2023-02-05T10:39:57.891Z,6.10
2023-02-05T10:42:39.454Z,6.20
2023-02-05T10:45:42.070Z,6.20
2023-02-05T10:48:37.156Z,6.20
2023-02-05T10:51:19.637Z,6.10
2023-02-05T10:53:59.706Z,6.00
2023-02-05T10:56:36.776Z,6.00
2023-02-05T10:59:23.747Z,6.00
2023-02-05T11:02:05.883Z,5.90
2023-02-05T11:04:50.262Z,5.80
2023-02-05T11:07:38.257Z,5.80
2023-02-05T11:10:18.469Z,5.80
2023-02-05T11:13:02.094Z,5.80
2023-02-05T11:15:55.840Z,5.90
2023-02-05T11:18:38.470Z,5.90
2023-02-05T11:21:15.500Z,6.00
2023-02-05T11:23:57.607Z,6.00
2023-02-05T11:26:34.498Z,6.00
2023-02-05T11:29:20.621Z,6.10
2023-02-05T11:31:59.725Z,6.10
2023-02-05T11:34:36.771Z,6.20
2023-02-05T11:37:17.591Z,6.20
2023-02-05T11:39:54.618Z,6.20
2023-02-05T11:42:31.899Z,6.20
2023-02-05T11:45:17.179Z,6.30
2023-02-05T11:47:54.912Z,6.30
2023-02-05T11:50:29.992Z,6.30
2023-02-05T11:53:14.195Z,6.40
2023-02-05T11:55:57.697Z,6.40
2023-02-05T11:58:37.302Z,6.40
2023-02-05T12:01:25.129Z,6.40
2023-02-05T12:04:16.576Z,6.40
2023-02-05T12:07:00.159Z,6.30
2023-02-05T12:09:27.436Z,6.30
2023-02-05T12:12:07.127Z,6.20
2023-02-05T12:14:43.667Z,6.20
2023-02-05T12:17:33.962Z,6.20
2023-02-05T12:20:25.300Z,6.20
2023-02-05T12:23:26.078Z,6.20
2023-02-05T12:26:30.519Z,6.20
2023-02-05T12:29:26.002Z,6.10
2023-02-05T12:32:16.762Z,6.10
2023-02-05T12:35:24.758Z,6.20
2023-02-05T12:38:21.083Z,6.20
2023-02-05T12:41:22.604Z,6.40
2023-02-05T12:44:20.247Z,6.70
2023-02-05T12:47:06.776Z,7.10
2023-02-05T12:50:00.605Z,7.80
2023-02-05T12:53:12.820Z,8.50
2023-02-05T12:56:32.848Z,8.50
2023-02-05T12:59:12.734Z,8.30
2023-02-05T13:01:47.695Z,8.20
2023-02-05T13:04:25.101Z,8.00
2023-02-05T13:06:59.174Z,7.90
2023-02-05T13:09:41.281Z,7.80
2023-02-05T13:12:15.301Z,7.70
2023-02-05T13:14:53.049Z,7.80
2023-02-05T13:17:25.381Z,7.70
2023-02-05T13:19:58.772Z,7.80
2023-02-05T13:22:31.670Z,7.90
2023-02-05T13:25:08.148Z,8.10
2023-02-05T13:27:42.965Z,8.20
2023-02-05T13:30:23.832Z,8.20
2023-02-05T13:32:59.339Z,8.30
2023-02-05T13:35:33.287Z,8.40
2023-02-05T13:38:37.289Z,8.40
2023-02-05T13:41:34.655Z,8.50
2023-02-05T13:44:27.473Z,8.60
2023-02-05T13:47:31.524Z,8.60
2023-02-05T13:50:29.495Z,8.60
2023-02-05T13:53:24.357Z,8.40
2023-02-05T13:56:35.169Z,8.30
2023-02-05T13:59:10.451Z,8.10
2023-02-05T14:01:43.788Z,8.00
2023-02-05T14:04:22.915Z,7.80
2023-02-05T14:06:58.713Z,7.60
2023-02-05T14:09:37.586Z,7.40
2023-02-05T14:12:08.922Z,7.30
2023-02-05T14:14:39.000Z,7.20
2023-02-05T14:17:53.224Z,7.20
2023-02-05T14:20:35.125Z,7.00
2023-02-05T14:23:11.700Z,6.90
2023-02-05T14:26:15.347Z,6.80
2023-02-05T14:28:53.039Z,6.80
2023-02-05T14:31:48.713Z,6.80
2023-02-05T14:34:59.390Z,6.60
2023-02-05T14:37:33.853Z,6.60
2023-02-05T14:40:24.811Z,6.60
2023-02-05T14:43:08.514Z,6.50
2023-02-05T14:45:44.861Z,6.50
2023-02-05T14:48:24.693Z,6.50
2023-02-05T14:51:04.719Z,6.50
2023-02-05T14:53:34.049Z,6.40
2023-02-05T14:56:04.954Z,6.30
2023-02-05T14:58:36.631Z,6.20
2023-02-05T15:01:42.922Z,6.20
2023-02-05T15:04:27.875Z,6.10
2023-02-05T15:06:59.255Z,6.10
2023-02-05T15:09:40.105Z,6.00
2023-02-05T15:12:42.598Z,6.00
2023-02-05T15:15:29.918Z,6.00
2023-02-05T15:18:04.559Z,5.90
2023-02-05T15:20:36.503Z,5.90
2023-02-05T15:23:18.152Z,5.90
2023-02-05T15:25:54.457Z,5.80
2023-02-05T15:28:29.976Z,5.80
2023-02-05T15:31:20.558Z,5.80
2023-02-05T15:33:58.385Z,5.70
2023-02-05T15:36:35.068Z,5.70
2023-02-05T15:39:24.898Z,5.60
2023-02-05T15:41:57.284Z,5.50
2023-02-05T15:44:28.394Z,5.40
2023-02-05T15:46:58.244Z,5.40
2023-02-05T15:49:37.838Z,5.40
2023-02-05T15:52:07.148Z,5.30
2023-02-05T15:54:36.757Z,5.30
2023-02-05T15:57:07.401Z,5.30
2023-02-05T15:59:34.955Z,5.20
2023-02-05T16:02:15.483Z,5.20
2023-02-05T16:04:42.680Z,5.20
2023-02-05T16:07:20.633Z,5.20
2023-02-05T16:09:52.830Z,5.10
2023-02-05T16:12:20.748Z,5.10
2023-02-05T16:14:59.115Z,5.10
2023-02-05T16:17:32.808Z,5.00
2023-02-05T16:20:23.287Z,5.00
2023-02-05T16:22:57.490Z,5.00
2023-02-05T16:25:40.595Z,5.00
2023-02-05T16:28:16.710Z,4.90
2023-02-05T16:30:47.106Z,4.90
2023-02-05T16:33:27.880Z,4.90
2023-02-05T16:35:56.582Z,4.80
2023-02-05T16:38:25.084Z,4.80
2023-02-05T16:40:56.562Z,4.80
2023-02-05T16:43:36.040Z,4.80
2023-02-05T16:46:34.298Z,4.80
2023-02-05T16:49:03.236Z,4.70
2023-02-05T16:51:38.009Z,4.70
2023-02-05T16:54:34.525Z,4.70
2023-02-05T16:57:11.479Z,4.70
2023-02-05T16:59:51.166Z,4.70
2023-02-05T17:02:28.980Z,4.60
2023-02-05T17:04:59.657Z,4.60
2023-02-05T17:07:27.016Z,4.60
2023-02-05T17:10:14.622Z,4.70
2023-02-05T17:12:55.979Z,4.70
2023-02-05T17:15:38.482Z,4.70
2023-02-05T17:18:21.314Z,4.70
2023-02-05T17:20:48.687Z,4.60
2023-02-05T17:23:16.820Z,4.60
2023-02-05T17:25:52.681Z,4.60
2023-02-05T17:28:23.040Z,4.60
2023-02-05T17:30:50.292Z,4.60
2023-02-05T17:33:20.235Z,4.50
2023-02-05T17:35:47.975Z,4.50
2023-02-05T17:38:15.933Z,4.50
2023-02-05T17:40:45.012Z,4.50
2023-02-05T17:43:13.556Z,4.50
2023-02-05T17:45:42.277Z,4.50
2023-02-05T17:48:09.323Z,4.50
2023-02-05T17:50:37.313Z,4.40
2023-02-05T17:53:04.578Z,4.30
2023-02-05T17:55:31.600Z,4.30
2023-02-05T17:57:59.893Z,4.30
2023-02-05T18:00:29.365Z,4.20
2023-02-05T18:02:56.330Z,4.20
2023-02-05T18:05:23.692Z,4.20
2023-02-05T18:07:53.523Z,4.20
2023-02-05T18:10:23.585Z,4.20
2023-02-05T18:12:51.126Z,4.20
2023-02-05T18:15:20.313Z,4.20
2023-02-05T18:17:47.603Z,4.20
2023-02-05T18:20:17.399Z,4.20
2023-02-05T18:22:44.716Z,4.20
2023-02-05T18:25:11.767Z,4.20
2023-02-05T18:27:38.901Z,4.20
2023-02-05T18:30:08.061Z,4.20
2023-02-05T18:32:36.338Z,4.20
2023-02-05T18:35:03.305Z,4.20
2023-02-05T18:37:30.683Z,4.20
2023-02-05T18:39:57.945Z,4.10
2023-02-05T18:42:25.763Z,4.10
2023-02-05T18:44:53.144Z,4.10
2023-02-05T18:47:20.120Z,4.10
2023-02-05T18:49:48.331Z,4.10
2023-02-05T18:52:15.512Z,4.10
2023-02-05T18:54:42.359Z,4.10
2023-02-05T18:57:09.232Z,4.10
2023-02-05T18:59:36.251Z,4.10
2023-02-05T19:02:03.095Z,4.20
2023-02-05T19:04:30.296Z,4.20
2023-02-05T19:06:59.246Z,4.20
2023-02-05T19:09:27.559Z,4.10
2023-02-05T19:11:55.182Z,4.10
2023-02-05T19:14:24.468Z,4.10
2023-02-05T19:16:52.234Z,4.20
2023-02-05T19:19:23.914Z,4.20
2023-02-05T19:21:52.318Z,4.20
2023-02-05T19:24:21.965Z,4.20
2023-02-05T19:26:49.273Z,4.10
2023-02-05T19:29:19.664Z,4.10
2023-02-05T19:31:47.705Z,4.00
2023-02-05T19:34:15.659Z,4.00
2023-02-05T19:36:43.549Z,3.90
2023-02-05T19:42:06.978Z,3.80
2023-02-05T19:44:34.014Z,3.70
2023-02-05T19:47:00.924Z,3.70
2023-02-05T19:49:28.120Z,3.70
2023-02-05T19:51:55.531Z,3.70
2023-02-05T19:54:23.145Z,3.60
2023-02-05T19:56:50.451Z,3.60
2023-02-05T19:59:19.016Z,3.60
2023-02-05T20:01:46.683Z,3.60
2023-02-05T20:04:17.582Z,3.60
2023-02-05T20:06:46.499Z,3.60
2023-02-05T20:09:16.160Z,3.60
2023-02-05T20:11:46.769Z,3.60
2023-02-05T20:14:16.085Z,3.60
2023-02-05T20:16:45.245Z,3.60
2023-02-05T20:19:15.648Z,3.50
2023-02-05T20:21:42.836Z,3.50
2023-02-05T20:24:10.261Z,3.50
2023-02-05T20:26:38.339Z,3.50
2023-02-05T20:29:05.867Z,3.60
2023-02-05T20:31:32.985Z,3.50
2023-02-05T20:34:01.869Z,3.60
2023-02-05T20:36:30.106Z,3.60
2023-02-05T20:38:57.526Z,3.60
2023-02-05T20:41:25.372Z,3.60
2023-02-05T20:43:52.894Z,3.60
2023-02-05T20:46:20.394Z,3.50
2023-02-05T20:48:47.864Z,3.50
2023-02-05T20:51:20.652Z,3.50
2023-02-05T20:53:48.762Z,3.50
2023-02-05T20:56:18.643Z,3.50
2023-02-05T20:58:46.829Z,3.50
2023-02-05T21:01:16.917Z,3.50
2023-02-05T21:03:47.370Z,3.40
2023-02-05T21:06:16.918Z,3.40
2023-02-05T21:08:46.264Z,3.40
2023-02-05T21:11:14.516Z,3.30
2023-02-05T21:13:42.484Z,3.30
2023-02-05T21:16:11.420Z,3.30
2023-02-05T21:18:39.644Z,3.20
2023-02-05T21:21:09.711Z,3.20
2023-02-05T21:23:38.918Z,3.20
2023-02-05T21:26:06.256Z,3.10
2023-02-05T21:28:34.686Z,3.10
2023-02-05T21:31:04.308Z,3.10
2023-02-05T21:33:31.806Z,3.10
2023-02-05T21:36:02.996Z,3.10
2023-02-05T21:38:29.916Z,3.10
2023-02-05T21:40:58.161Z,3.00
2023-02-05T21:43:25.474Z,3.00
2023-02-05T21:45:52.535Z,3.00
2023-02-05T21:48:19.549Z,2.90
2023-02-05T21:50:46.554Z,2.90
2023-02-05T21:53:13.671Z,2.90
2023-02-05T21:55:40.491Z,2.90
2023-02-05T21:58:34.446Z,2.80
2023-02-05T22:01:13.597Z,2.90
2023-02-05T22:03:47.122Z,2.80
2023-02-05T22:06:14.167Z,2.80
2023-02-05T22:08:41.627Z,2.80
2023-02-05T22:11:11.097Z,2.80
2023-02-05T22:13:42.669Z,2.70
2023-02-05T22:16:13.859Z,2.70
2023-02-05T22:18:41.670Z,2.70
2023-02-05T22:21:11.723Z,2.60
2023-02-05T22:23:39.339Z,2.60
2023-02-05T22:26:08.014Z,2.60
2023-02-05T22:28:35.854Z,2.50
2023-02-05T22:31:07.412Z,2.50
2023-02-05T22:33:37.062Z,2.50
2023-02-05T22:36:06.156Z,2.50
2023-02-05T22:38:36.461Z,2.50
2023-02-05T22:41:08.945Z,2.50
2023-02-05T22:43:36.090Z,2.50
2023-02-05T22:46:06.396Z,2.40
2023-02-05T22:48:35.196Z,2.40
2023-02-05T22:51:03.245Z,2.40
2023-02-05T22:53:30.896Z,2.40
2023-02-05T22:56:00.902Z,2.40
2023-02-05T22:58:28.341Z,2.30
2023-02-05T23:00:55.746Z,2.30
2023-02-05T23:03:25.188Z,2.30
2023-02-05T23:05:52.947Z,2.30
2023-02-05T23:08:21.664Z,2.20
2023-02-05T23:10:48.506Z,2.20
2023-02-05T23:13:15.469Z,2.20
2023-02-05T23:15:42.272Z,2.20
2023-02-05T23:18:09.288Z,2.20
2023-02-05T23:20:41.081Z,2.10
2023-02-05T23:23:08.214Z,2.10
2023-02-05T23:25:36.269Z,2.00
2023-02-05T23:28:03.698Z,2.00
2023-02-05T23:33:22.142Z,2.00
2023-02-05T23:35:50.389Z,2.00
2023-02-05T23:38:17.306Z,1.90
2023-02-05T23:40:44.248Z,1.90
2023-02-05T23:43:13.282Z,1.90
2023-02-05T23:45:40.458Z,1.90
2023-02-05T23:48:07.375Z,2.00
2023-02-05T23:50:34.322Z,2.00
2023-02-05T23:53:03.728Z,2.00
2023-02-05T23:55:30.738Z,2.00
2023-02-05T23:57:58.107Z,2.00
